Terminal Aerodrome Forecast
Issued by NWS Paducah, KY

Home | Current Version | Previous Version | Text Only | Print | Product List | Glossary On
Versions: 1 2 3 4 5 6 7 8 9 10 11 12 13 14 15 16
000
FTUS43 KPAH 140900 AAA
TAFPAH
TAF AMD
KPAH 140958Z 1410/1506 18010KT P6SM SCT015 BKN090
      TEMPO 1410/1412 BKN015
     FM141400 27010G18KT P6SM OVC025
     FM141900 32015G25KT 4SM -RA BR OVC015=

USA.gov is the U.S. government's official web portal to all federal, state and local government web resources and services.